createdAt,value
2022-08-18T00:00:23.133Z,39.64
2022-08-18T00:01:23.121Z,37.38
2022-08-18T00:02:28.788Z,40.28
2022-08-18T00:03:53.108Z,44.63
2022-08-18T00:04:35.789Z,37.38
2022-08-18T00:05:24.087Z,37.38
2022-08-18T00:06:23.086Z,39.16
2022-08-18T00:07:23.065Z,44.96
2022-08-18T00:08:23.069Z,42.06
2022-08-18T00:09:23.072Z,38.19
2022-08-18T00:10:23.055Z,36.25
2022-08-18T00:11:23.024Z,50.60
2022-08-18T00:12:23.026Z,41.41
2022-08-18T00:13:23.017Z,40.93
2022-08-18T00:14:23.096Z,40.12
2022-08-18T00:15:23.012Z,38.19
2022-08-18T00:16:23.003Z,41.09
2022-08-18T00:17:23.018Z,37.87
2022-08-18T00:18:22.989Z,49.47
2022-08-18T00:19:43.623Z,38.83
2022-08-18T00:20:23.983Z,41.57
2022-08-18T00:21:22.951Z,39.32
2022-08-18T00:22:22.942Z,44.96
2022-08-18T00:23:22.932Z,45.76
2022-08-18T00:24:22.940Z,49.15
2022-08-18T00:25:22.936Z,37.71
2022-08-18T00:26:22.946Z,38.19
2022-08-18T00:27:26.182Z,38.35
2022-08-18T00:28:24.133Z,38.19
2022-08-18T00:29:22.896Z,40.28
2022-08-18T00:30:22.868Z,40.28
2022-08-18T00:33:22.387Z,48.82
2022-08-18T00:34:22.378Z,49.15
2022-08-18T00:35:22.377Z,40.44
2022-08-18T00:36:22.357Z,49.79
2022-08-18T00:37:22.359Z,40.44
2022-08-18T00:38:23.584Z,38.99
2022-08-18T00:39:22.339Z,38.51
2022-08-18T00:40:22.383Z,39.80
2022-08-18T00:41:22.329Z,39.80
2022-08-18T00:42:28.920Z,38.03
2022-08-18T00:43:24.417Z,38.51
2022-08-18T00:44:23.397Z,48.66
2022-08-18T00:45:23.391Z,40.93
2022-08-18T00:46:23.377Z,38.19
2022-08-18T00:47:32.963Z,38.83
2022-08-18T00:48:24.382Z,38.83
2022-08-18T00:49:23.350Z,38.67
2022-08-18T00:50:23.357Z,41.89
2022-08-18T00:51:23.339Z,39.32
2022-08-18T00:52:23.368Z,37.71
2022-08-18T00:53:23.323Z,39.16
2022-08-18T00:54:23.329Z,40.28
2022-08-18T00:55:23.305Z,37.22
2022-08-18T00:56:23.304Z,41.89
2022-08-18T00:57:23.300Z,37.38
2022-08-18T00:58:23.281Z,37.22
2022-08-18T00:59:23.282Z,37.22
2022-08-18T01:00:23.269Z,36.09
2022-08-18T01:01:23.354Z,36.74
2022-08-18T01:02:23.242Z,37.06
2022-08-18T01:03:24.605Z,35.93
2022-08-18T01:04:23.245Z,37.22
2022-08-18T01:05:23.235Z,37.06
2022-08-18T01:06:23.216Z,43.99
2022-08-18T01:07:23.216Z,40.12
2022-08-18T01:08:28.860Z,37.71
2022-08-18T01:09:24.228Z,38.83
2022-08-18T01:10:23.306Z,37.54
2022-08-18T01:11:23.185Z,38.83
2022-08-18T01:12:45.775Z,37.71
2022-08-18T01:13:24.175Z,36.74
2022-08-18T01:14:23.177Z,37.06
2022-08-18T01:15:28.838Z,37.38
2022-08-18T01:16:24.151Z,38.51
2022-08-18T01:17:23.133Z,36.58
2022-08-18T01:18:23.119Z,37.71
2022-08-18T01:19:23.123Z,39.96
2022-08-18T01:20:23.100Z,41.25
2022-08-18T01:21:23.143Z,39.80
2022-08-18T01:22:23.091Z,38.19
2022-08-18T01:23:23.077Z,39.32
2022-08-18T01:24:23.082Z,37.87
2022-08-18T01:25:23.583Z,40.93
2022-08-18T01:26:23.086Z,38.83
2022-08-18T01:27:23.077Z,38.83
2022-08-18T01:28:23.054Z,43.02
2022-08-18T01:29:23.069Z,39.48
2022-08-18T01:30:23.019Z,40.77
2022-08-18T01:31:23.760Z,41.09
2022-08-18T01:32:23.009Z,45.44
2022-08-18T01:33:22.995Z,41.41
2022-08-18T01:34:23.988Z,39.64
2022-08-18T01:35:23.000Z,45.60
2022-08-18T01:36:23.065Z,37.38
2022-08-18T01:37:22.970Z,37.54
2022-08-18T01:38:22.952Z,42.22
2022-08-18T01:41:23.888Z,40.28
2022-08-18T01:41:24.228Z,37.54
2022-08-18T01:41:30.318Z,39.32
2022-08-18T01:42:24.938Z,41.73
2022-08-18T01:43:22.906Z,43.67
2022-08-18T01:46:29.178Z,39.96
2022-08-18T01:47:29.173Z,47.70
2022-08-18T01:48:31.250Z,48.18
2022-08-18T01:49:30.292Z,39.32
2022-08-18T01:50:30.236Z,36.90
2022-08-18T01:51:39.453Z,41.57
2022-08-18T01:52:31.225Z,50.43
2022-08-18T01:53:30.209Z,37.38
2022-08-18T01:54:30.370Z,37.38
2022-08-18T01:55:30.193Z,36.58
2022-08-18T01:56:30.191Z,37.87
2022-08-18T01:57:30.182Z,37.87
2022-08-18T01:58:31.809Z,37.38
2022-08-18T01:59:31.161Z,48.18
2022-08-18T02:00:30.150Z,48.02
2022-08-18T02:01:36.642Z,41.09
2022-08-18T02:02:31.187Z,46.89
2022-08-18T02:03:30.135Z,41.25
2022-08-18T02:04:37.614Z,40.28
2022-08-18T02:05:32.116Z,37.87
2022-08-18T02:06:32.488Z,43.02
2022-08-18T02:07:35.951Z,51.88
2022-08-18T02:08:31.097Z,41.57
2022-08-18T02:09:30.083Z,41.73
2022-08-18T02:10:30.076Z,41.25
2022-08-18T02:11:30.065Z,43.34
2022-08-18T02:12:30.059Z,41.09
2022-08-18T02:13:30.059Z,43.51
2022-08-18T02:14:31.304Z,40.77
2022-08-18T02:15:30.044Z,42.38
2022-08-18T02:16:30.027Z,39.32
2022-08-18T02:17:30.020Z,40.12
2022-08-18T02:18:47.226Z,42.86
2022-08-18T02:19:32.001Z,40.61
2022-08-18T02:20:30.014Z,42.38
2022-08-18T02:21:29.990Z,43.02
2022-08-18T02:22:29.979Z,40.28
2022-08-18T02:23:29.976Z,41.25
2022-08-18T02:24:29.966Z,45.28
2022-08-18T02:25:29.995Z,49.47
2022-08-18T02:26:29.948Z,47.86
2022-08-18T02:27:29.938Z,41.57
2022-08-18T02:28:30.742Z,46.25
2022-08-18T02:29:30.929Z,51.72
2022-08-18T02:30:29.917Z,53.01
2022-08-18T02:31:29.923Z,52.05
2022-08-18T02:32:29.896Z,50.92
2022-08-18T02:33:29.889Z,56.88
2022-08-18T02:34:29.882Z,53.82
2022-08-18T02:35:29.872Z,49.47
2022-08-18T02:36:29.870Z,56.07
2022-08-18T02:37:29.852Z,44.31
2022-08-18T02:38:29.851Z,45.76
2022-08-18T02:39:29.929Z,44.31
2022-08-18T02:40:29.839Z,44.79
2022-08-18T02:41:30.187Z,43.99
2022-08-18T02:42:29.818Z,48.02
2022-08-18T02:43:31.161Z,48.98
2022-08-18T02:44:30.629Z,47.70
2022-08-18T02:45:30.796Z,45.44
2022-08-18T02:46:31.305Z,47.70
2022-08-18T02:47:33.521Z,44.31
2022-08-18T02:48:30.770Z,56.72
2022-08-18T02:49:29.767Z,43.51
2022-08-18T02:50:29.754Z,47.53
2022-08-18T02:51:29.743Z,50.92
2022-08-18T02:52:29.752Z,48.18
2022-08-18T02:53:29.720Z,50.43
2022-08-18T02:54:29.717Z,49.63
2022-08-18T02:55:29.711Z,55.43
2022-08-18T02:56:32.863Z,46.89
2022-08-18T02:57:30.688Z,44.31
2022-08-18T02:58:33.571Z,43.67
2022-08-18T02:59:31.944Z,47.53
2022-08-18T03:00:29.680Z,46.08
2022-08-18T03:01:29.775Z,55.43
2022-08-18T03:02:29.650Z,53.33
2022-08-18T03:03:29.642Z,47.05
2022-08-18T03:04:30.548Z,47.21
2022-08-18T03:05:29.637Z,49.31
2022-08-18T03:06:29.619Z,54.14
2022-08-18T03:07:29.616Z,52.05
2022-08-18T03:08:29.600Z,50.27
2022-08-18T03:09:29.593Z,49.47
2022-08-18T03:10:33.006Z,49.15
2022-08-18T03:11:29.588Z,45.60
2022-08-18T03:12:29.580Z,43.51
2022-08-18T03:13:29.561Z,47.05
2022-08-18T03:14:29.560Z,52.53
2022-08-18T03:15:29.552Z,50.27
2022-08-18T03:16:29.546Z,45.44
2022-08-18T03:17:29.532Z,48.98
2022-08-18T03:18:29.523Z,49.47
2022-08-18T03:19:29.635Z,53.98
2022-08-18T03:20:30.282Z,49.95
2022-08-18T03:21:29.500Z,49.47
2022-08-18T03:22:29.763Z,46.08
2022-08-18T03:23:30.095Z,47.70
2022-08-18T03:24:29.488Z,51.40
2022-08-18T03:25:29.466Z,49.31
2022-08-18T03:26:29.460Z,49.63
2022-08-18T03:27:30.078Z,49.47
2022-08-18T03:28:29.444Z,48.02
2022-08-18T03:29:32.317Z,52.69
2022-08-18T03:30:30.431Z,51.72
2022-08-18T03:31:29.418Z,56.24
2022-08-18T03:32:29.413Z,52.85
2022-08-18T03:33:29.435Z,54.14
2022-08-18T03:34:29.408Z,57.20
2022-08-18T03:35:29.395Z,59.62
2022-08-18T03:36:29.384Z,58.65
2022-08-18T03:37:29.374Z,48.66
2022-08-18T03:38:29.364Z,50.92
2022-08-18T03:39:29.470Z,56.88
2022-08-18T03:40:29.381Z,48.98
2022-08-18T03:41:57.117Z,46.89
2022-08-18T03:42:30.336Z,46.73
2022-08-18T03:43:50.756Z,52.53
2022-08-18T03:44:31.107Z,48.34
2022-08-18T03:45:29.673Z,55.11
2022-08-18T03:46:29.298Z,53.82
2022-08-18T03:47:29.287Z,53.01
2022-08-18T03:48:29.283Z,55.11
2022-08-18T03:49:29.280Z,50.11
2022-08-18T03:50:29.267Z,53.01
2022-08-18T03:51:29.257Z,53.33
2022-08-18T03:52:29.250Z,59.46
2022-08-18T03:53:29.241Z,55.59
2022-08-18T03:54:29.280Z,53.01
2022-08-18T03:55:29.233Z,53.98
2022-08-18T03:56:29.206Z,53.50
2022-08-18T03:57:30.214Z,54.62
2022-08-18T03:58:29.204Z,50.27
2022-08-18T03:59:29.199Z,57.52
2022-08-18T04:00:29.194Z,57.36
2022-08-18T04:01:29.224Z,54.95
2022-08-18T04:02:29.175Z,56.24
2022-08-18T04:03:29.173Z,53.33
2022-08-18T04:04:29.159Z,54.30
2022-08-18T04:05:29.156Z,56.24
2022-08-18T04:06:29.883Z,51.08
2022-08-18T04:07:29.142Z,53.50
2022-08-18T04:08:29.127Z,56.56
2022-08-18T04:09:29.124Z,54.95
2022-08-18T04:10:29.117Z,50.27
2022-08-18T04:11:29.104Z,52.37
2022-08-18T04:12:30.092Z,55.59
2022-08-18T04:13:29.086Z,53.01
2022-08-18T04:14:29.092Z,57.52
2022-08-18T04:15:29.075Z,51.88
2022-08-18T04:16:29.061Z,52.53
2022-08-18T04:17:29.063Z,55.59
2022-08-18T04:18:29.042Z,58.33
2022-08-18T04:19:29.076Z,57.52
2022-08-18T04:20:29.030Z,58.81
2022-08-18T04:21:29.038Z,56.24
2022-08-18T04:22:29.017Z,49.63
2022-08-18T04:23:29.012Z,44.79
2022-08-18T04:24:31.170Z,53.33
2022-08-18T04:25:32.728Z,56.56
2022-08-18T04:26:29.982Z,57.52
2022-08-18T04:27:28.983Z,56.07
2022-08-18T04:28:28.976Z,54.79
2022-08-18T04:29:28.976Z,58.17
2022-08-18T04:30:28.953Z,58.17
2022-08-18T04:31:28.946Z,55.27
2022-08-18T04:32:30.293Z,56.40
2022-08-18T04:33:28.931Z,56.40
2022-08-18T04:34:28.934Z,58.49
2022-08-18T04:35:29.083Z,59.14
2022-08-18T04:36:28.905Z,59.78
2022-08-18T04:37:28.904Z,56.72
2022-08-18T04:38:28.886Z,57.52
2022-08-18T04:39:28.920Z,57.69
2022-08-18T04:40:28.900Z,55.43
2022-08-18T04:41:28.859Z,57.20
2022-08-18T04:42:28.861Z,59.46
2022-08-18T04:43:28.844Z,55.43
2022-08-18T04:44:28.842Z,55.27
2022-08-18T04:45:28.826Z,53.82
2022-08-18T04:46:28.819Z,50.11
2022-08-18T04:47:28.818Z,55.43
2022-08-18T04:48:28.809Z,57.52
2022-08-18T04:49:28.794Z,56.72
2022-08-18T04:50:28.795Z,55.43
2022-08-18T04:52:37.752Z,59.30
2022-08-18T04:52:40.241Z,51.56
2022-08-18T04:53:29.761Z,57.85
2022-08-18T04:54:28.755Z,60.10
2022-08-18T04:55:28.757Z,55.75
2022-08-18T04:56:28.742Z,57.36
2022-08-18T04:57:28.730Z,60.59
2022-08-18T04:58:28.725Z,55.43
2022-08-18T04:59:28.719Z,58.49
2022-08-18T05:00:28.705Z,62.04
2022-08-18T05:01:28.797Z,53.33
2022-08-18T05:02:28.692Z,62.20
2022-08-18T05:03:28.683Z,61.87
2022-08-18T05:04:28.688Z,53.01
2022-08-18T05:05:28.666Z,57.04
2022-08-18T05:06:28.657Z,56.56
2022-08-18T05:07:28.653Z,58.65
2022-08-18T05:08:28.647Z,58.97
2022-08-18T05:09:28.647Z,59.30
2022-08-18T05:10:28.627Z,56.24
2022-08-18T05:11:28.621Z,55.59
2022-08-18T05:12:28.614Z,55.75
2022-08-18T05:13:28.609Z,61.55
2022-08-18T05:14:28.605Z,59.46
2022-08-18T05:15:28.819Z,59.30
2022-08-18T05:16:28.589Z,60.75
2022-08-18T05:17:30.137Z,66.39
2022-08-18T05:18:28.570Z,66.39
2022-08-18T05:19:28.569Z,66.71
2022-08-18T05:20:28.564Z,63.33
2022-08-18T05:21:28.551Z,61.71
2022-08-18T05:22:31.376Z,61.07
2022-08-18T05:23:28.534Z,60.59
2022-08-18T05:24:33.570Z,60.91
2022-08-18T05:25:30.520Z,57.36
2022-08-18T05:26:28.509Z,58.49
2022-08-18T05:27:28.501Z,59.46
2022-08-18T05:28:28.496Z,60.42
2022-08-18T05:29:28.486Z,61.07
2022-08-18T05:30:28.490Z,61.07
2022-08-18T05:31:28.477Z,60.59
2022-08-18T05:32:46.310Z,61.07
2022-08-18T05:33:29.456Z,59.62
2022-08-18T05:34:28.501Z,56.88
2022-08-18T05:35:28.446Z,57.85
2022-08-18T05:36:28.430Z,60.10
2022-08-18T05:37:28.425Z,62.04
2022-08-18T05:38:29.421Z,58.97
2022-08-18T05:39:28.481Z,58.81
2022-08-18T05:40:28.407Z,58.33
2022-08-18T05:41:28.394Z,57.36
2022-08-18T05:42:28.777Z,62.04
2022-08-18T05:43:28.377Z,59.30
2022-08-18T05:44:28.375Z,59.62
2022-08-18T05:45:28.369Z,60.42
2022-08-18T05:46:28.365Z,58.65
2022-08-18T05:47:28.346Z,54.95
2022-08-18T05:48:28.337Z,59.78
2022-08-18T05:49:28.334Z,58.97
2022-08-18T05:50:28.321Z,61.55
2022-08-18T05:51:28.325Z,60.75
2022-08-18T05:52:28.303Z,57.85
2022-08-18T05:53:28.299Z,58.33
2022-08-18T05:54:28.297Z,60.10
2022-08-18T05:55:28.291Z,57.85
2022-08-18T05:56:28.282Z,56.88
2022-08-18T05:57:28.268Z,58.97
2022-08-18T05:58:33.299Z,60.75
2022-08-18T05:59:29.255Z,58.97
2022-08-18T06:00:28.279Z,66.39
2022-08-18T06:01:28.242Z,61.39
2022-08-18T06:02:28.230Z,63.16
2022-08-18T06:03:28.261Z,68.00
2022-08-18T06:04:28.215Z,66.39
2022-08-18T06:05:28.204Z,59.14
2022-08-18T06:06:28.213Z,59.78
2022-08-18T06:07:28.196Z,59.14
2022-08-18T06:08:29.183Z,58.33
2022-08-18T06:09:28.186Z,57.69
2022-08-18T06:10:28.271Z,58.65
2022-08-18T06:11:28.172Z,59.14
2022-08-18T06:12:28.152Z,57.20
2022-08-18T06:13:28.162Z,60.10
2022-08-18T06:14:28.136Z,62.20
2022-08-18T06:15:28.127Z,58.49
2022-08-18T06:16:28.118Z,58.81
2022-08-18T06:17:28.121Z,58.49
2022-08-18T06:18:28.103Z,59.46
2022-08-18T06:19:28.097Z,58.49
2022-08-18T06:20:28.224Z,59.78
2022-08-18T06:21:28.080Z,60.59
2022-08-18T06:22:30.539Z,61.23
2022-08-18T06:23:28.067Z,58.17
2022-08-18T06:24:28.053Z,59.78
2022-08-18T06:25:28.061Z,60.10
2022-08-18T06:26:28.048Z,57.69
2022-08-18T06:27:28.067Z,59.62
2022-08-18T06:28:28.029Z,57.20
2022-08-18T06:29:28.016Z,58.49
2022-08-18T06:30:28.008Z,68.96
2022-08-18T06:31:29.559Z,63.81
2022-08-18T06:32:28.997Z,61.87
2022-08-18T06:33:27.986Z,59.94
2022-08-18T06:34:27.977Z,58.17
2022-08-18T06:35:27.995Z,60.10
2022-08-18T06:36:27.969Z,65.10
2022-08-18T06:37:28.715Z,60.91
2022-08-18T06:38:27.946Z,60.26
2022-08-18T06:39:28.005Z,58.49
2022-08-18T06:40:27.933Z,60.59
2022-08-18T06:41:40.700Z,66.39
2022-08-18T06:42:28.914Z,63.65
2022-08-18T06:43:27.907Z,61.23
2022-08-18T06:44:27.903Z,57.69
2022-08-18T06:45:33.780Z,57.52
2022-08-18T06:46:28.894Z,58.65
2022-08-18T06:47:27.877Z,55.59
2022-08-18T06:48:27.872Z,59.62
2022-08-18T06:49:27.867Z,60.10
2022-08-18T06:50:27.861Z,60.26
2022-08-18T06:51:27.847Z,59.30
2022-08-18T06:52:27.870Z,60.10
2022-08-18T06:53:28.390Z,57.04
2022-08-18T06:54:27.836Z,59.94
2022-08-18T06:55:27.813Z,60.42
2022-08-18T06:56:27.807Z,63.81
2022-08-18T06:57:27.809Z,57.85
2022-08-18T06:58:27.790Z,59.78
2022-08-18T06:59:27.782Z,59.78
2022-08-18T07:00:27.777Z,59.46
2022-08-18T07:01:27.793Z,58.97
2022-08-18T07:02:27.769Z,57.04
2022-08-18T07:03:28.775Z,54.95
2022-08-18T07:04:27.742Z,58.97
2022-08-18T07:05:27.737Z,59.94
2022-08-18T07:06:27.728Z,59.14
2022-08-18T07:07:27.725Z,58.33
2022-08-18T07:08:28.713Z,55.91
2022-08-18T07:09:27.721Z,58.81
2022-08-18T07:10:27.716Z,58.33
2022-08-18T07:11:27.684Z,57.20
2022-08-18T07:12:32.254Z,57.20
2022-08-18T07:13:30.212Z,67.84
2022-08-18T07:14:27.685Z,64.61
2022-08-18T07:15:27.652Z,64.29
2022-08-18T07:16:54.516Z,64.29
2022-08-18T07:17:42.564Z,65.58
2022-08-18T07:18:28.626Z,61.55
2022-08-18T07:19:27.619Z,59.94
2022-08-18T07:20:27.614Z,58.81
2022-08-18T07:21:27.604Z,63.81
2022-08-18T07:22:38.932Z,60.91
2022-08-18T07:23:28.612Z,61.07
2022-08-18T07:24:27.585Z,58.49
2022-08-18T07:25:27.572Z,59.62
2022-08-18T07:26:27.565Z,59.14
2022-08-18T07:27:28.234Z,57.04
2022-08-18T07:28:27.559Z,58.81
2022-08-18T07:29:27.536Z,58.97
2022-08-18T07:30:27.539Z,60.26
2022-08-18T07:31:27.546Z,59.30
2022-08-18T07:32:27.512Z,57.04
2022-08-18T07:33:27.519Z,59.30
2022-08-18T07:34:27.532Z,55.91
2022-08-18T07:35:27.506Z,58.97
2022-08-18T07:36:27.484Z,61.23
2022-08-18T07:37:28.950Z,58.49
2022-08-18T07:38:42.453Z,58.81
2022-08-18T07:39:29.525Z,58.97
2022-08-18T07:40:27.476Z,57.85
2022-08-18T07:41:28.242Z,57.04
2022-08-18T07:42:53.534Z,60.10
2022-08-18T07:43:28.423Z,60.26
2022-08-18T07:44:27.414Z,58.01
2022-08-18T07:45:27.411Z,59.14
2022-08-18T07:46:27.397Z,56.88
2022-08-18T07:47:27.398Z,54.79
2022-08-18T07:48:38.175Z,57.20
2022-08-18T07:49:29.376Z,58.65
2022-08-18T07:50:57.652Z,56.40
2022-08-18T07:51:37.046Z,59.14
2022-08-18T07:52:43.935Z,55.59
2022-08-18T07:53:28.356Z,58.33
2022-08-18T07:54:48.470Z,61.23
2022-08-18T07:55:29.328Z,57.85
2022-08-18T07:56:27.321Z,60.26
2022-08-18T07:57:27.310Z,58.33
2022-08-18T07:58:27.339Z,58.33
2022-08-18T07:59:27.292Z,59.62
2022-08-18T08:00:57.086Z,60.10
2022-08-18T08:01:29.307Z,61.87
2022-08-18T08:02:27.274Z,60.26
2022-08-18T08:03:27.287Z,61.55
2022-08-18T08:04:27.251Z,61.07
2022-08-18T08:05:27.239Z,60.10
2022-08-18T08:06:27.247Z,60.75
2022-08-18T08:07:27.251Z,61.23
2022-08-18T08:08:27.223Z,60.26
2022-08-18T08:09:27.215Z,60.26
2022-08-18T08:10:27.202Z,59.94
2022-08-18T08:11:27.203Z,58.65
2022-08-18T08:12:27.186Z,59.30
2022-08-18T08:13:53.533Z,60.10
2022-08-18T08:14:29.201Z,58.97
2022-08-18T08:15:27.360Z,60.75
2022-08-18T08:16:27.167Z,59.94
2022-08-18T08:17:27.147Z,59.94
2022-08-18T08:18:27.137Z,60.91
2022-08-18T08:19:49.342Z,60.91
2022-08-18T08:20:32.889Z,60.75
2022-08-18T08:21:27.145Z,61.55
2022-08-18T08:22:27.110Z,61.71
2022-08-18T08:23:27.101Z,60.91
2022-08-18T08:24:27.099Z,59.94
2022-08-18T08:25:47.550Z,61.23
2022-08-18T08:26:29.079Z,62.68
2022-08-18T08:27:27.682Z,61.07
2022-08-18T08:28:27.065Z,59.14
2022-08-18T08:29:27.066Z,60.59
2022-08-18T08:30:27.048Z,61.39
2022-08-18T08:31:39.761Z,60.26
2022-08-18T08:32:29.031Z,60.75
2022-08-18T08:33:27.028Z,61.71
2022-08-18T08:34:27.028Z,59.62
2022-08-18T08:35:50.159Z,61.55
2022-08-18T08:36:28.020Z,59.94
2022-08-18T08:37:26.991Z,61.39
2022-08-18T08:38:42.301Z,60.75
2022-08-18T08:39:29.062Z,61.23
2022-08-18T08:40:26.972Z,60.10
2022-08-18T08:41:26.965Z,61.23
2022-08-18T08:42:31.547Z,60.42
2022-08-18T08:43:27.946Z,59.46
2022-08-18T08:44:26.934Z,60.10
2022-08-18T08:45:26.935Z,59.78
2022-08-18T08:46:26.935Z,60.10
2022-08-18T08:47:26.922Z,58.81
2022-08-18T08:48:26.901Z,61.71
2022-08-18T08:49:26.895Z,64.45
2022-08-18T08:50:26.893Z,62.04
2022-08-18T08:51:26.893Z,60.75
2022-08-18T08:52:26.867Z,60.42
2022-08-18T08:53:26.859Z,62.36
2022-08-18T08:54:26.856Z,59.46
2022-08-18T08:55:26.849Z,59.14
2022-08-18T08:56:26.838Z,61.71
2022-08-18T08:57:27.690Z,60.75
2022-08-18T08:58:26.821Z,61.07
2022-08-18T08:59:26.813Z,59.94
2022-08-18T09:00:26.810Z,62.52
2022-08-18T09:01:26.883Z,60.91
2022-08-18T09:02:46.820Z,61.23
2022-08-18T09:03:30.260Z,62.84
2022-08-18T09:04:26.770Z,60.10
2022-08-18T09:05:26.819Z,62.68
2022-08-18T09:06:26.769Z,63.00
2022-08-18T09:07:26.744Z,60.75
2022-08-18T09:08:26.745Z,61.55
2022-08-18T09:09:26.735Z,60.91
2022-08-18T09:10:26.725Z,58.33
2022-08-18T09:11:26.723Z,55.91
2022-08-18T09:12:26.715Z,63.97
2022-08-18T09:13:29.171Z,61.23
2022-08-18T09:14:27.687Z,60.10
2022-08-18T09:15:26.683Z,55.91
2022-08-18T09:16:27.779Z,59.78
2022-08-18T09:17:30.026Z,58.65
2022-08-18T09:18:27.649Z,59.14
2022-08-18T09:19:26.651Z,60.75
2022-08-18T09:20:26.646Z,63.00
2022-08-18T09:21:26.623Z,65.26
2022-08-18T09:22:27.177Z,64.45
2022-08-18T09:23:26.611Z,60.91
2022-08-18T09:24:26.612Z,60.42
2022-08-18T09:25:26.602Z,64.45
2022-08-18T09:26:26.591Z,63.65
2022-08-18T09:27:26.596Z,65.74
2022-08-18T09:28:26.579Z,67.03
2022-08-18T09:29:26.565Z,64.61
2022-08-18T09:30:26.565Z,64.78
2022-08-18T09:31:26.550Z,64.78
2022-08-18T09:32:28.209Z,64.45
2022-08-18T09:33:26.543Z,64.29
2022-08-18T09:34:26.527Z,63.65
2022-08-18T09:35:26.525Z,65.58
2022-08-18T09:36:26.513Z,66.39
2022-08-18T09:37:26.573Z,64.45
2022-08-18T09:38:26.505Z,65.42
2022-08-18T09:39:26.620Z,63.16
2022-08-18T09:40:51.341Z,60.59
2022-08-18T09:41:28.472Z,62.36
2022-08-18T09:42:29.897Z,63.97
2022-08-18T09:43:26.467Z,63.00
2022-08-18T09:44:26.578Z,63.49
2022-08-18T09:45:31.058Z,63.00
2022-08-18T09:46:28.438Z,65.58
2022-08-18T09:47:27.505Z,63.16
2022-08-18T09:49:27.422Z,62.68
2022-08-18T09:50:26.805Z,60.75
2022-08-18T09:50:37.216Z,61.07
2022-08-18T09:51:27.396Z,61.55
2022-08-18T09:52:26.427Z,62.20
2022-08-18T09:53:26.381Z,64.78
2022-08-18T09:54:26.377Z,64.78
2022-08-18T09:55:26.367Z,61.23
2022-08-18T09:56:28.675Z,62.52
2022-08-18T09:57:26.362Z,61.39
2022-08-18T09:58:26.352Z,64.29
2022-08-18T09:59:26.321Z,60.42
2022-08-18T10:00:28.251Z,63.00
2022-08-18T10:01:26.362Z,61.23
2022-08-18T10:02:28.059Z,63.33
2022-08-18T10:03:26.476Z,65.10
2022-08-18T10:04:29.227Z,62.20
2022-08-18T10:05:26.290Z,66.87
2022-08-18T10:06:27.616Z,64.29
2022-08-18T10:07:26.274Z,63.97
2022-08-18T10:08:26.270Z,58.17
2022-08-18T10:09:36.972Z,63.16
2022-08-18T10:11:01.247Z,59.46
2022-08-18T10:11:27.238Z,60.75
2022-08-18T10:12:27.453Z,61.39
2022-08-18T10:13:26.233Z,60.10
2022-08-18T10:14:26.227Z,60.10
2022-08-18T10:15:33.125Z,64.45
2022-08-18T10:16:28.141Z,65.74
2022-08-18T10:17:26.194Z,59.62
2022-08-18T10:18:26.185Z,62.36
2022-08-18T10:19:28.165Z,61.23
2022-08-18T10:20:28.179Z,61.39
2022-08-18T10:21:26.166Z,61.87
2022-08-18T10:22:35.171Z,64.78
2022-08-18T10:23:28.147Z,58.97
2022-08-18T10:24:35.847Z,61.07
2022-08-18T10:25:28.133Z,62.68
2022-08-18T10:26:26.143Z,62.20
2022-08-18T10:27:26.118Z,62.36
2022-08-18T10:28:26.110Z,64.29
2022-08-18T10:29:26.097Z,66.39
2022-08-18T10:30:30.449Z,60.10
2022-08-18T10:31:27.285Z,60.26
2022-08-18T10:32:26.072Z,60.26
2022-08-18T10:33:26.074Z,61.71
2022-08-18T10:34:26.064Z,60.59
2022-08-18T10:35:32.662Z,62.04
2022-08-18T10:36:28.806Z,63.49
2022-08-18T10:37:26.341Z,61.55
2022-08-18T10:38:26.026Z,58.65
2022-08-18T10:39:27.117Z,59.30
2022-08-18T10:40:26.652Z,61.87
2022-08-18T10:41:26.731Z,59.62
2022-08-18T10:42:28.599Z,60.59
2022-08-18T10:44:29.591Z,61.23
2022-08-18T10:45:26.985Z,61.23
2022-08-18T10:46:28.520Z,62.36
2022-08-18T10:47:33.500Z,59.30
2022-08-18T10:48:27.078Z,61.71
2022-08-18T10:50:26.933Z,60.26
2022-08-18T10:51:25.935Z,60.10
2022-08-18T10:52:25.921Z,59.62
2022-08-18T10:53:40.710Z,61.55
2022-08-18T10:54:27.920Z,59.94
2022-08-18T10:55:25.910Z,62.36
2022-08-18T10:56:27.430Z,65.10
2022-08-18T10:57:25.889Z,66.39
2022-08-18T10:58:28.220Z,61.39
2022-08-18T10:59:28.083Z,64.45
2022-08-18T11:00:26.099Z,64.94
2022-08-18T11:01:25.856Z,61.87
2022-08-18T11:02:26.848Z,65.42
2022-08-18T11:03:55.491Z,61.07
2022-08-18T11:04:34.526Z,61.07
2022-08-18T11:05:27.827Z,58.17
2022-08-18T11:06:25.828Z,56.56
2022-08-18T11:07:25.824Z,58.65
2022-08-18T11:08:25.839Z,60.91
2022-08-18T11:09:25.798Z,62.36
2022-08-18T11:10:30.032Z,60.75
2022-08-18T11:12:27.771Z,59.62
2022-08-18T11:13:26.121Z,61.07
2022-08-18T11:14:25.769Z,60.26
2022-08-18T11:15:25.750Z,61.71
2022-08-18T11:16:25.741Z,60.59
2022-08-18T11:17:26.362Z,58.49
2022-08-18T11:18:25.728Z,58.65
2022-08-18T11:19:25.714Z,58.97
2022-08-18T11:20:25.710Z,61.23
2022-08-18T11:21:25.702Z,61.07
2022-08-18T11:22:31.501Z,62.84
2022-08-18T11:23:26.690Z,61.23
2022-08-18T11:24:25.686Z,60.26
2022-08-18T11:25:25.672Z,56.24
2022-08-18T11:26:25.664Z,57.69
2022-08-18T11:27:25.651Z,59.62
2022-08-18T11:29:26.630Z,62.52
2022-08-18T11:30:30.426Z,63.65
2022-08-18T11:31:26.621Z,60.59
2022-08-18T11:32:26.258Z,61.07
2022-08-18T11:33:25.608Z,59.62
2022-08-18T11:34:25.596Z,58.33
2022-08-18T11:35:25.594Z,60.10
2022-08-18T11:36:26.150Z,61.87
2022-08-18T11:37:25.576Z,58.97
2022-08-18T11:38:25.565Z,59.46
2022-08-18T11:39:36.861Z,61.23
2022-08-18T11:41:08.974Z,59.14
2022-08-18T11:41:48.259Z,59.78
2022-08-18T11:42:26.543Z,60.10
2022-08-18T11:43:25.534Z,57.69
2022-08-18T11:44:25.610Z,59.46
2022-08-18T11:45:25.520Z,60.10
2022-08-18T11:46:30.134Z,58.49
2022-08-18T11:47:27.702Z,60.10
2022-08-18T11:48:32.158Z,61.87
2022-08-18T11:49:27.480Z,60.75
2022-08-18T11:50:25.475Z,57.85
2022-08-18T11:51:25.596Z,56.40
2022-08-18T11:52:29.074Z,61.07
2022-08-18T11:53:27.338Z,63.65
2022-08-18T11:54:25.441Z,61.71
2022-08-18T11:55:25.435Z,60.10
2022-08-18T11:56:27.102Z,60.59
2022-08-18T11:57:26.437Z,60.75
2022-08-18T11:58:25.415Z,60.75
2022-08-18T11:59:52.655Z,63.00
2022-08-18T12:00:26.407Z,63.33
2022-08-18T12:01:25.393Z,63.00
2022-08-18T12:02:25.440Z,61.55
2022-08-18T12:03:28.454Z,59.94
2022-08-18T12:04:26.277Z,58.33
2022-08-18T12:05:25.357Z,60.42
2022-08-18T12:06:27.094Z,59.78
2022-08-18T12:07:25.357Z,59.14
2022-08-18T12:08:54.654Z,62.04
2022-08-18T12:10:28.463Z,63.65
2022-08-18T12:11:27.194Z,60.59
2022-08-18T12:12:25.468Z,60.42
2022-08-18T12:13:25.310Z,60.91
2022-08-18T12:15:36.556Z,60.10
2022-08-18T12:16:27.276Z,59.62
2022-08-18T12:17:25.282Z,61.55
2022-08-18T12:18:28.728Z,59.46
2022-08-18T12:19:25.331Z,59.46
2022-08-18T12:20:25.242Z,59.62
2022-08-18T12:21:25.256Z,61.87
2022-08-18T12:22:26.223Z,60.59
2022-08-18T12:23:25.230Z,57.20
2022-08-18T12:24:26.081Z,57.69
2022-08-18T12:25:25.810Z,58.17
2022-08-18T12:26:38.820Z,64.29
2022-08-18T12:27:26.188Z,63.16
2022-08-18T12:28:28.197Z,63.81
2022-08-18T12:29:29.474Z,61.55
2022-08-18T12:30:27.165Z,61.23
2022-08-18T12:32:41.345Z,62.20
2022-08-18T12:33:34.562Z,61.23
2022-08-18T12:34:26.609Z,60.75
2022-08-18T12:35:25.181Z,60.42
2022-08-18T12:36:25.117Z,59.62
2022-08-18T12:37:58.129Z,60.42
2022-08-18T12:38:27.103Z,59.78
2022-08-18T12:39:25.109Z,61.55
2022-08-18T12:40:25.135Z,58.65
2022-08-18T12:41:25.072Z,56.56
2022-08-18T12:44:13.418Z,59.78
2022-08-18T12:45:11.691Z,59.94
2022-08-18T12:47:12.626Z,58.97
2022-08-18T12:48:11.630Z,59.62
2022-08-18T12:49:11.615Z,60.26
2022-08-18T12:50:11.610Z,57.85
2022-08-18T12:51:14.240Z,58.65
2022-08-18T12:52:12.689Z,62.36
2022-08-18T12:53:14.337Z,60.75
2022-08-18T12:54:13.742Z,59.30
2022-08-18T12:55:22.031Z,60.26
2022-08-18T12:56:13.651Z,60.26
2022-08-18T12:57:16.877Z,60.42
2022-08-18T12:58:13.412Z,60.91
2022-08-18T12:59:12.640Z,58.97
2022-08-18T13:00:15.331Z,60.75
2022-08-18T13:01:13.663Z,58.81
2022-08-18T13:02:13.423Z,58.01
2022-08-18T13:03:13.490Z,60.42
2022-08-18T13:04:14.243Z,58.65
2022-08-18T13:05:13.593Z,60.42
2022-08-18T13:06:12.588Z,59.78